createdAt,value
2018-12-17T00:00:31.722Z,849.61
2018-12-17T00:01:31.584Z,849.64
2018-12-17T00:02:31.449Z,849.67
2018-12-17T00:03:31.315Z,849.71
2018-12-17T00:04:31.180Z,849.68
2018-12-17T00:05:31.045Z,849.68
2018-12-17T00:06:30.909Z,849.68
2018-12-17T00:07:30.773Z,849.71
2018-12-17T00:08:32.162Z,849.69
2018-12-17T00:09:30.508Z,849.69
2018-12-17T00:10:30.372Z,849.64
2018-12-17T00:11:30.234Z,849.68
2018-12-17T00:12:30.098Z,849.65
2018-12-17T00:13:29.962Z,849.69
2018-12-17T00:14:29.827Z,849.65
2018-12-17T00:15:29.696Z,849.65
2018-12-17T00:16:29.558Z,849.65
2018-12-17T00:17:29.423Z,849.65
2018-12-17T00:18:29.288Z,849.68
2018-12-17T00:19:29.153Z,849.70
2018-12-17T00:20:29.020Z,849.72
2018-12-17T00:21:28.881Z,849.71
2018-12-17T00:22:28.746Z,849.68
2018-12-17T00:23:28.612Z,849.68
2018-12-17T00:24:28.477Z,849.71
2018-12-17T00:25:28.339Z,849.70
2018-12-17T00:26:28.204Z,849.69
2018-12-17T00:27:28.070Z,849.68
2018-12-17T00:28:27.934Z,849.67
2018-12-17T00:29:27.800Z,849.68
2018-12-17T00:30:27.664Z,849.71
2018-12-17T00:31:27.529Z,849.74
2018-12-17T00:32:27.397Z,849.74
2018-12-17T00:33:27.258Z,849.75
2018-12-17T00:34:27.123Z,849.77
2018-12-17T00:35:26.988Z,849.77
2018-12-17T00:36:26.855Z,849.82
2018-12-17T00:37:26.717Z,849.85
2018-12-17T00:38:26.631Z,849.87
2018-12-17T00:39:26.448Z,849.88
2018-12-17T00:40:26.316Z,849.87
2018-12-17T00:41:26.176Z,849.93
2018-12-17T00:42:26.042Z,849.87
2018-12-17T00:43:25.909Z,849.91
2018-12-17T00:44:25.773Z,849.94
2018-12-17T00:45:25.634Z,849.92
2018-12-17T00:46:25.499Z,849.93
2018-12-17T00:47:25.366Z,849.91
2018-12-17T00:48:25.232Z,849.92
2018-12-17T00:49:25.094Z,849.93
2018-12-17T00:50:24.963Z,850.01
2018-12-17T00:51:24.824Z,849.94
2018-12-17T00:52:24.690Z,849.98
2018-12-17T00:53:24.552Z,849.99
2018-12-17T00:54:24.416Z,850.04
2018-12-17T00:55:24.282Z,849.98
2018-12-17T00:56:24.147Z,850.02
2018-12-17T00:57:24.011Z,850.00
2018-12-17T00:58:23.879Z,850.02
2018-12-17T00:59:23.738Z,850.04
2018-12-17T01:00:23.605Z,850.04
2018-12-17T01:01:23.467Z,850.03
2018-12-17T01:02:23.332Z,850.06
2018-12-17T01:03:23.203Z,850.04
2018-12-17T01:04:23.062Z,850.04
2018-12-17T01:05:22.928Z,850.04
2018-12-17T01:06:24.338Z,850.09
2018-12-17T01:07:22.654Z,850.08
2018-12-17T01:08:22.522Z,850.09
2018-12-17T01:09:22.383Z,850.14
2018-12-17T01:10:22.248Z,850.10
2018-12-17T01:11:22.115Z,850.12
2018-12-17T01:12:21.976Z,850.11
2018-12-17T01:13:21.841Z,850.11
2018-12-17T01:14:21.707Z,850.08
2018-12-17T01:15:21.575Z,850.10
2018-12-17T01:16:21.437Z,850.09
2018-12-17T01:17:21.300Z,850.11
2018-12-17T01:18:21.163Z,850.13
2018-12-17T01:19:21.029Z,850.11
2018-12-17T01:20:20.894Z,850.11
2018-12-17T01:21:20.759Z,850.14
2018-12-17T01:22:20.644Z,850.15
2018-12-17T01:23:20.486Z,850.17
2018-12-17T01:24:20.351Z,850.18
2018-12-17T01:25:20.215Z,850.18
2018-12-17T01:26:20.081Z,850.15
2018-12-17T01:27:19.955Z,850.22
2018-12-17T01:28:22.335Z,850.23
2018-12-17T01:29:19.674Z,850.21
2018-12-17T01:30:19.540Z,850.20
2018-12-17T01:31:19.402Z,850.21
2018-12-17T01:32:19.271Z,850.16
2018-12-17T01:33:19.129Z,850.18
2018-12-17T01:34:19.009Z,850.18
2018-12-17T01:35:18.860Z,850.20
2018-12-17T01:36:18.725Z,850.21
2018-12-17T01:37:18.589Z,850.18
2018-12-17T01:38:18.452Z,850.21
2018-12-17T01:39:18.316Z,850.21
2018-12-17T01:40:18.182Z,850.21
2018-12-17T01:41:18.045Z,850.23
2018-12-17T01:42:17.913Z,850.23
2018-12-17T01:43:17.778Z,850.25
2018-12-17T01:44:17.640Z,850.25
2018-12-17T01:45:17.504Z,850.32
2018-12-17T01:46:17.367Z,850.30
2018-12-17T01:47:17.232Z,850.30
2018-12-17T01:48:17.096Z,850.31
2018-12-17T01:49:16.961Z,850.33
2018-12-17T01:50:16.824Z,850.37
2018-12-17T01:51:16.687Z,850.35
2018-12-17T01:52:16.553Z,850.35
2018-12-17T01:53:16.416Z,850.37
2018-12-17T01:54:16.282Z,850.37
2018-12-17T01:55:16.148Z,850.39
2018-12-17T01:56:16.008Z,850.41
2018-12-17T01:57:15.882Z,850.41
2018-12-17T01:58:15.740Z,850.43
2018-12-17T01:59:15.599Z,850.36
2018-12-17T02:00:15.466Z,850.35
2018-12-17T02:01:15.330Z,850.35
2018-12-17T02:02:15.194Z,850.36
2018-12-17T02:03:15.056Z,850.35
2018-12-17T02:04:14.921Z,850.34
2018-12-17T02:05:14.785Z,850.34
2018-12-17T02:06:14.650Z,850.35
2018-12-17T02:07:15.289Z,850.33
2018-12-17T02:08:14.377Z,850.37
2018-12-17T02:09:14.243Z,850.35
2018-12-17T02:10:14.108Z,850.35
2018-12-17T02:11:13.970Z,850.33
2018-12-17T02:12:13.834Z,850.35
2018-12-17T02:13:13.698Z,850.32
2018-12-17T02:14:13.562Z,850.35
2018-12-17T02:15:13.428Z,850.35
2018-12-17T02:16:13.292Z,850.36
2018-12-17T02:17:13.156Z,850.38
2018-12-17T02:18:13.019Z,850.41
2018-12-17T02:19:12.886Z,850.36
2018-12-17T02:20:12.750Z,850.36
2018-12-17T02:21:12.613Z,850.39
2018-12-17T02:22:12.475Z,850.39
2018-12-17T02:23:12.342Z,850.40
2018-12-17T02:24:12.207Z,850.38
2018-12-17T02:25:12.073Z,850.41
2018-12-17T02:26:11.938Z,850.40
2018-12-17T02:27:11.803Z,850.39
2018-12-17T02:28:11.668Z,850.42
2018-12-17T02:29:11.531Z,850.46
2018-12-17T02:30:11.400Z,850.43
2018-12-17T02:31:11.261Z,850.41
2018-12-17T02:32:11.124Z,850.40
2018-12-17T02:33:10.989Z,850.41
2018-12-17T02:34:10.853Z,850.45
2018-12-17T02:35:10.715Z,850.45
2018-12-17T02:36:10.595Z,850.44
2018-12-17T02:37:10.451Z,850.47
2018-12-17T02:38:10.311Z,850.46
2018-12-17T02:39:10.174Z,850.49
2018-12-17T02:40:10.041Z,850.51
2018-12-17T02:41:09.909Z,850.51
2018-12-17T02:42:09.771Z,850.50
2018-12-17T02:43:09.637Z,850.51
2018-12-17T02:44:09.499Z,850.56
2018-12-17T02:45:09.364Z,850.58
2018-12-17T02:46:09.229Z,850.57
2018-12-17T02:47:09.095Z,850.59
2018-12-17T02:48:08.958Z,850.60
2018-12-17T02:49:08.840Z,850.63
2018-12-17T02:50:08.691Z,850.60
2018-12-17T02:51:08.552Z,850.58
2018-12-17T02:52:08.417Z,850.60
2018-12-17T02:53:08.283Z,850.60
2018-12-17T02:54:08.162Z,850.61
2018-12-17T02:55:08.012Z,850.63
2018-12-17T02:56:07.876Z,850.59
2018-12-17T02:57:07.741Z,850.65
2018-12-17T02:58:07.605Z,850.62
2018-12-17T02:59:07.476Z,850.66
2018-12-17T03:00:07.396Z,850.66
2018-12-17T03:01:07.198Z,850.66
2018-12-17T03:02:07.063Z,850.63
2018-12-17T03:03:06.931Z,850.67
2018-12-17T03:04:06.794Z,850.66
2018-12-17T03:05:06.658Z,850.65
2018-12-17T03:06:06.523Z,850.69
2018-12-17T03:07:06.387Z,850.73
2018-12-17T03:08:06.252Z,850.72
2018-12-17T03:09:06.117Z,850.72
2018-12-17T03:10:05.995Z,850.71
2018-12-17T03:11:05.853Z,850.75
2018-12-17T03:12:05.712Z,850.75
2018-12-17T03:13:05.577Z,850.78
2018-12-17T03:14:05.445Z,850.78
2018-12-17T03:15:05.306Z,850.85
2018-12-17T03:16:05.176Z,850.84
2018-12-17T03:17:05.035Z,850.81
2018-12-17T03:18:04.900Z,850.80
2018-12-17T03:19:04.767Z,850.84
2018-12-17T03:20:04.632Z,850.82
2018-12-17T03:21:04.495Z,850.81
2018-12-17T03:22:04.360Z,850.79
2018-12-17T03:23:04.224Z,850.80
2018-12-17T03:24:04.091Z,850.84
2018-12-17T03:25:03.956Z,850.83
2018-12-17T03:26:03.820Z,850.83
2018-12-17T03:27:03.688Z,850.83
2018-12-17T03:28:03.550Z,850.86
2018-12-17T03:29:03.413Z,850.86
2018-12-17T03:30:03.282Z,850.85
2018-12-17T03:31:03.151Z,850.88
2018-12-17T03:32:03.051Z,850.88
2018-12-17T03:33:02.877Z,850.86
2018-12-17T03:34:02.742Z,850.92
2018-12-17T03:35:02.606Z,850.90
2018-12-17T03:36:02.470Z,850.87
2018-12-17T03:37:02.340Z,850.88
2018-12-17T03:38:02.202Z,850.85
2018-12-17T03:39:02.070Z,850.84
2018-12-17T03:40:01.942Z,850.81
2018-12-17T03:41:01.796Z,850.83
2018-12-17T03:42:01.661Z,850.87
2018-12-17T03:43:01.530Z,850.86
2018-12-17T03:44:01.395Z,850.86
2018-12-17T03:45:01.265Z,850.85
2018-12-17T03:46:01.122Z,850.82
2018-12-17T03:47:00.992Z,850.82
2018-12-17T03:48:00.871Z,850.87
2018-12-17T03:49:00.722Z,850.81
2018-12-17T03:50:00.591Z,850.81
2018-12-17T03:51:00.451Z,850.86
2018-12-17T03:52:00.316Z,850.86
2018-12-17T03:53:00.223Z,850.85
2018-12-17T03:54:00.048Z,850.83
2018-12-17T03:54:59.910Z,850.80
2018-12-17T03:55:59.774Z,850.81
2018-12-17T03:56:59.640Z,850.78
2018-12-17T03:57:59.508Z,850.79
2018-12-17T03:58:59.606Z,850.82
2018-12-17T03:59:59.234Z,850.84
2018-12-17T04:00:59.102Z,850.79
2018-12-17T04:01:58.964Z,850.81
2018-12-17T04:02:58.830Z,850.80
2018-12-17T04:03:58.694Z,850.80
2018-12-17T04:04:58.561Z,850.76
2018-12-17T04:05:58.425Z,850.77
2018-12-17T04:06:58.288Z,850.80
2018-12-17T04:07:58.157Z,850.80
2018-12-17T04:08:58.021Z,850.84
2018-12-17T04:09:57.891Z,850.83
2018-12-17T04:10:57.749Z,850.81
2018-12-17T04:11:57.621Z,850.84
2018-12-17T04:12:57.483Z,850.81
2018-12-17T04:13:57.345Z,850.85
2018-12-17T04:14:57.213Z,850.83
2018-12-17T04:15:57.074Z,850.82
2018-12-17T04:16:56.941Z,850.85
2018-12-17T04:17:56.805Z,850.88
2018-12-17T04:18:56.670Z,850.95
2018-12-17T04:19:56.536Z,850.96
2018-12-17T04:20:56.401Z,850.92
2018-12-17T04:21:56.265Z,850.92
2018-12-17T04:22:56.131Z,850.97
2018-12-17T04:23:55.998Z,850.93
2018-12-17T04:24:55.861Z,850.93
2018-12-17T04:25:55.730Z,850.95
2018-12-17T04:26:55.595Z,850.99
2018-12-17T04:27:55.464Z,851.00
2018-12-17T04:28:55.322Z,850.99
2018-12-17T04:29:55.188Z,851.02
2018-12-17T04:30:55.054Z,851.02
2018-12-17T04:31:54.917Z,851.01
2018-12-17T04:32:54.782Z,850.98
2018-12-17T04:33:54.647Z,851.06
2018-12-17T04:34:54.517Z,851.09
2018-12-17T04:35:54.380Z,851.04
2018-12-17T04:36:54.242Z,851.04
2018-12-17T04:37:54.108Z,851.07
2018-12-17T04:38:53.974Z,851.06
2018-12-17T04:39:53.840Z,851.04
2018-12-17T04:40:53.701Z,851.02
2018-12-17T04:41:53.568Z,851.04
2018-12-17T04:42:53.434Z,851.04
2018-12-17T04:43:53.308Z,851.06
2018-12-17T04:44:53.176Z,851.06
2018-12-17T04:45:53.032Z,851.03
2018-12-17T04:46:52.898Z,851.05
2018-12-17T04:47:52.762Z,851.02
2018-12-17T04:48:52.628Z,851.12
2018-12-17T04:49:52.488Z,851.10
2018-12-17T04:50:52.356Z,851.11
2018-12-17T04:51:52.219Z,851.12
2018-12-17T04:52:52.096Z,851.10
2018-12-17T04:53:51.966Z,851.08
2018-12-17T04:54:51.813Z,851.09
2018-12-17T04:55:51.690Z,851.14
2018-12-17T04:56:51.551Z,851.13
2018-12-17T04:57:51.410Z,851.15
2018-12-17T04:58:51.287Z,851.15
2018-12-17T04:59:51.159Z,851.17
2018-12-17T05:00:51.003Z,851.18
2018-12-17T05:01:50.954Z,851.20
2018-12-17T05:02:50.758Z,851.21
2018-12-17T05:03:50.603Z,851.21
2018-12-17T05:04:50.463Z,851.24
2018-12-17T05:05:50.338Z,851.24
2018-12-17T05:06:50.204Z,851.26
2018-12-17T05:07:50.080Z,851.25
2018-12-17T05:08:49.921Z,851.24
2018-12-17T05:09:49.786Z,851.31
2018-12-17T05:10:49.651Z,851.28
2018-12-17T05:11:49.514Z,851.33
2018-12-17T05:12:49.385Z,851.35
2018-12-17T05:13:49.246Z,851.36
2018-12-17T05:14:49.122Z,851.35
2018-12-17T05:15:48.974Z,851.35
2018-12-17T05:16:48.863Z,851.38
2018-12-17T05:17:48.706Z,851.39
2018-12-17T05:18:48.570Z,851.43
2018-12-17T05:19:48.435Z,851.38
2018-12-17T05:20:48.303Z,851.37
2018-12-17T05:21:48.176Z,851.40
2018-12-17T05:22:48.032Z,851.42
2018-12-17T05:23:47.904Z,851.44
2018-12-17T05:24:47.938Z,851.46
2018-12-17T05:25:47.619Z,851.48
2018-12-17T05:26:47.486Z,851.46
2018-12-17T05:27:47.350Z,851.45
2018-12-17T05:28:47.219Z,851.46
2018-12-17T05:29:47.079Z,851.45
2018-12-17T05:30:46.945Z,851.46
2018-12-17T05:31:46.816Z,851.49
2018-12-17T05:32:46.674Z,851.51
2018-12-17T05:33:46.559Z,851.51
2018-12-17T05:34:46.403Z,851.55
2018-12-17T05:35:46.268Z,851.56
2018-12-17T05:36:46.130Z,851.60
2018-12-17T05:37:45.997Z,851.59
2018-12-17T05:38:45.869Z,851.62
2018-12-17T05:39:45.728Z,851.62
2018-12-17T05:40:45.595Z,851.64
2018-12-17T05:41:45.456Z,851.71
2018-12-17T05:42:45.336Z,851.70
2018-12-17T05:43:45.376Z,851.75
2018-12-17T05:44:45.115Z,851.74
2018-12-17T05:45:44.918Z,851.74
2018-12-17T05:46:44.782Z,851.80
2018-12-17T05:47:44.646Z,851.80
2018-12-17T05:48:44.511Z,851.82
2018-12-17T05:49:44.385Z,851.85
2018-12-17T05:50:44.246Z,851.90
2018-12-17T05:51:44.152Z,851.90
2018-12-17T05:52:43.972Z,851.90
2018-12-17T05:53:43.839Z,851.92
2018-12-17T05:54:43.699Z,851.98
2018-12-17T05:55:44.294Z,852.04
2018-12-17T05:56:43.432Z,852.03
2018-12-17T05:57:43.296Z,852.01
2018-12-17T05:58:43.165Z,851.98
2018-12-17T05:59:43.025Z,852.03
2018-12-17T06:00:42.901Z,852.03
2018-12-17T06:01:42.761Z,852.07
2018-12-17T06:02:42.624Z,852.06
2018-12-17T06:03:42.485Z,852.13
2018-12-17T06:04:42.352Z,852.13
2018-12-17T06:05:42.218Z,852.16
2018-12-17T06:06:42.084Z,852.17
2018-12-17T06:07:41.947Z,852.15
2018-12-17T06:08:41.813Z,852.16
2018-12-17T06:09:41.679Z,852.21
2018-12-17T06:10:41.543Z,852.19
2018-12-17T06:11:41.409Z,852.18
2018-12-17T06:12:41.275Z,852.19
2018-12-17T06:13:41.141Z,852.21
2018-12-17T06:14:41.003Z,852.21
2018-12-17T06:15:40.869Z,852.26
2018-12-17T06:16:40.733Z,852.25
2018-12-17T06:17:40.604Z,852.28
2018-12-17T06:18:40.468Z,852.28
2018-12-17T06:19:40.331Z,852.29
2018-12-17T06:20:40.195Z,852.35
2018-12-17T06:21:40.061Z,852.37
2018-12-17T06:22:39.933Z,852.37
2018-12-17T06:23:39.793Z,852.44
2018-12-17T06:24:39.659Z,852.44
2018-12-17T06:25:39.540Z,852.43
2018-12-17T06:26:39.389Z,852.44
2018-12-17T06:27:39.267Z,852.48
2018-12-17T06:28:39.162Z,852.48
2018-12-17T06:29:38.985Z,852.51
2018-12-17T06:30:38.849Z,852.54
2018-12-17T06:31:38.717Z,852.53
2018-12-17T06:32:38.585Z,852.59
2018-12-17T06:33:38.448Z,852.57
2018-12-17T06:34:38.313Z,852.57
2018-12-17T06:35:38.178Z,852.59
2018-12-17T06:36:38.045Z,852.61
2018-12-17T06:37:37.914Z,852.68
2018-12-17T06:38:37.776Z,852.67
2018-12-17T06:39:37.641Z,852.70
2018-12-17T06:40:37.506Z,852.70
2018-12-17T06:41:37.372Z,852.73
2018-12-17T06:42:37.238Z,852.70
2018-12-17T06:43:37.104Z,852.71
2018-12-17T06:44:36.969Z,852.73
2018-12-17T06:45:36.838Z,852.74
2018-12-17T06:46:36.702Z,852.76
2018-12-17T06:47:36.567Z,852.80
2018-12-17T06:48:36.431Z,852.90
2018-12-17T06:49:36.297Z,852.90
2018-12-17T06:50:36.165Z,852.93
2018-12-17T06:51:36.030Z,852.92
2018-12-17T06:52:35.900Z,852.95
2018-12-17T06:53:35.759Z,852.95
2018-12-17T06:54:35.624Z,853.00
2018-12-17T06:55:35.494Z,852.98
2018-12-17T06:56:35.358Z,853.02
2018-12-17T06:57:35.226Z,853.00
2018-12-17T06:58:35.088Z,853.00
2018-12-17T06:59:34.953Z,853.04
2018-12-17T07:00:34.819Z,853.09
2018-12-17T07:01:34.685Z,853.13
2018-12-17T07:02:34.549Z,853.13
2018-12-17T07:03:34.416Z,853.11
2018-12-17T07:04:34.285Z,853.14
2018-12-17T07:05:34.147Z,853.14
2018-12-17T07:06:34.018Z,853.16
2018-12-17T07:07:33.882Z,853.22
2018-12-17T07:08:33.741Z,853.20
2018-12-17T07:09:33.608Z,853.26
2018-12-17T07:10:33.474Z,853.22
2018-12-17T07:11:33.342Z,853.22
2018-12-17T07:12:33.207Z,853.26
2018-12-17T07:13:33.073Z,853.29
2018-12-17T07:14:36.473Z,853.30
2018-12-17T07:15:32.803Z,853.39
2018-12-17T07:16:32.667Z,853.39
2018-12-17T07:17:32.532Z,853.44
2018-12-17T07:18:32.399Z,853.46
2018-12-17T07:19:32.269Z,853.50
2018-12-17T07:20:32.129Z,853.51
2018-12-17T07:21:31.994Z,853.52
2018-12-17T07:22:31.862Z,853.59
2018-12-17T07:23:31.730Z,853.63
2018-12-17T07:24:31.591Z,853.62
2018-12-17T07:25:31.457Z,853.60
2018-12-17T07:26:31.322Z,853.65
2018-12-17T07:27:31.189Z,853.66
2018-12-17T07:28:31.052Z,853.67
2018-12-17T07:29:30.917Z,853.65
2018-12-17T07:30:30.787Z,853.69
2018-12-17T07:31:30.656Z,853.70
2018-12-17T07:32:30.516Z,853.72
2018-12-17T07:33:30.385Z,853.75
2018-12-17T07:34:30.246Z,853.76
2018-12-17T07:35:30.112Z,853.81
2018-12-17T07:36:29.977Z,853.81
2018-12-17T07:37:29.843Z,853.84
2018-12-17T07:38:31.076Z,853.84
2018-12-17T07:39:29.579Z,853.87
2018-12-17T07:40:29.440Z,853.90
2018-12-17T07:41:29.304Z,853.92
2018-12-17T07:42:29.171Z,853.94
2018-12-17T07:43:29.035Z,853.96
2018-12-17T07:44:28.900Z,853.99
2018-12-17T07:45:28.766Z,854.02
2018-12-17T07:46:28.642Z,854.02
2018-12-17T07:47:28.499Z,854.03
2018-12-17T07:48:28.364Z,854.02
2018-12-17T07:49:28.232Z,854.06
2018-12-17T07:50:28.098Z,854.09
2018-12-17T07:51:27.963Z,854.10
2018-12-17T07:52:27.826Z,854.11
2018-12-17T07:53:27.693Z,854.13
2018-12-17T07:54:27.619Z,854.15
2018-12-17T07:55:27.426Z,854.19
2018-12-17T07:56:27.290Z,854.18
2018-12-17T07:57:27.155Z,854.16
2018-12-17T07:58:27.021Z,854.20
2018-12-17T07:59:26.889Z,854.24
2018-12-17T08:00:26.754Z,854.27
2018-12-17T08:01:26.618Z,854.26
2018-12-17T08:02:26.485Z,854.34
2018-12-17T08:03:26.351Z,854.37
2018-12-17T08:04:26.215Z,854.35
2018-12-17T08:05:26.081Z,854.35
2018-12-17T08:06:25.948Z,854.40
2018-12-17T08:07:25.812Z,854.38
2018-12-17T08:08:25.676Z,854.35
2018-12-17T08:09:25.550Z,854.40
2018-12-17T08:10:25.413Z,854.43
2018-12-17T08:11:25.275Z,854.48
2018-12-17T08:12:25.140Z,854.49
2018-12-17T08:13:25.007Z,854.49
2018-12-17T08:14:24.870Z,854.50
2018-12-17T08:15:24.738Z,854.50
2018-12-17T08:16:24.602Z,854.47
2018-12-17T08:17:24.471Z,854.47
2018-12-17T08:18:24.335Z,854.50
2018-12-17T08:19:24.206Z,854.56
2018-12-17T08:20:24.067Z,854.62
2018-12-17T08:21:23.931Z,854.65
2018-12-17T08:22:23.800Z,854.66
2018-12-17T08:23:23.665Z,854.64
2018-12-17T08:24:23.528Z,854.65
2018-12-17T08:25:23.397Z,854.64
2018-12-17T08:26:23.263Z,854.66
2018-12-17T08:27:23.139Z,854.67
2018-12-17T08:28:22.996Z,854.66
2018-12-17T08:29:22.862Z,854.68
2018-12-17T08:30:22.727Z,854.74
2018-12-17T08:31:22.595Z,854.70
2018-12-17T08:32:22.470Z,854.67
2018-12-17T08:33:22.327Z,854.70
2018-12-17T08:34:22.197Z,854.71
2018-12-17T08:35:22.065Z,854.73
2018-12-17T08:36:21.923Z,854.74
2018-12-17T08:37:21.792Z,854.77
2018-12-17T08:38:21.658Z,854.84
2018-12-17T08:39:21.526Z,854.87
2018-12-17T08:40:21.390Z,854.88
2018-12-17T08:41:21.263Z,854.91
2018-12-17T08:42:21.124Z,854.88
2018-12-17T08:43:20.994Z,854.89
2018-12-17T08:44:20.860Z,854.89
2018-12-17T08:45:20.726Z,854.92
2018-12-17T08:46:20.593Z,854.91
2018-12-17T08:47:20.461Z,854.95
2018-12-17T08:48:20.327Z,854.97
2018-12-17T08:49:20.192Z,855.00
2018-12-17T08:50:20.061Z,855.02
2018-12-17T08:51:19.928Z,855.05
2018-12-17T08:52:19.836Z,855.06
2018-12-17T08:53:19.663Z,855.06
2018-12-17T08:54:19.529Z,855.09
2018-12-17T08:55:19.396Z,855.09
2018-12-17T08:56:19.260Z,855.11
2018-12-17T08:57:19.129Z,855.16
2018-12-17T08:58:18.996Z,855.14
2018-12-17T08:59:18.863Z,855.16
2018-12-17T09:00:18.730Z,855.20
2018-12-17T09:01:18.596Z,855.25
2018-12-17T09:02:18.464Z,855.27
2018-12-17T09:03:18.336Z,855.33
2018-12-17T09:04:18.199Z,855.34
2018-12-17T09:05:18.065Z,855.34
2018-12-17T09:06:17.932Z,855.37
2018-12-17T09:07:17.799Z,855.40
2018-12-17T09:08:17.667Z,855.42
2018-12-17T09:09:17.536Z,855.42
2018-12-17T09:10:17.400Z,855.44
2018-12-17T09:11:17.268Z,855.50
2018-12-17T09:12:17.133Z,855.48
2018-12-17T09:13:17.003Z,855.53
2018-12-17T09:14:16.872Z,855.53
2018-12-17T09:15:16.739Z,855.54
2018-12-17T09:16:16.603Z,855.51
2018-12-17T09:17:16.471Z,855.53
2018-12-17T09:18:16.343Z,855.50
2018-12-17T09:19:16.203Z,855.55
2018-12-17T09:20:16.070Z,855.56
2018-12-17T09:21:15.938Z,855.60
2018-12-17T09:22:15.807Z,855.65
2018-12-17T09:23:15.673Z,855.64
2018-12-17T09:24:15.537Z,855.68
2018-12-17T09:25:15.410Z,855.71
2018-12-17T09:26:15.271Z,855.67
2018-12-17T09:27:15.142Z,855.69
2018-12-17T09:28:15.007Z,855.70
2018-12-17T09:29:14.873Z,855.72
2018-12-17T09:30:18.283Z,855.73
2018-12-17T09:31:14.611Z,855.74
2018-12-17T09:32:14.473Z,855.74
2018-12-17T09:33:14.343Z,855.78
2018-12-17T09:34:14.210Z,855.76
2018-12-17T09:35:14.078Z,855.76
2018-12-17T09:36:13.949Z,855.74
2018-12-17T09:37:13.811Z,855.75
2018-12-17T09:38:13.680Z,855.74
2018-12-17T09:39:13.545Z,855.76
2018-12-17T09:40:13.413Z,855.75
2018-12-17T09:41:13.283Z,855.78
2018-12-17T09:42:13.147Z,855.76
2018-12-17T09:43:13.015Z,855.73
2018-12-17T09:44:12.882Z,855.74
2018-12-17T09:45:12.749Z,855.76
2018-12-17T09:46:12.618Z,855.74
2018-12-17T09:47:12.488Z,855.74
2018-12-17T09:48:12.352Z,855.77
2018-12-17T09:49:12.223Z,855.80
2018-12-17T09:50:12.089Z,855.79
2018-12-17T09:51:11.955Z,855.81
2018-12-17T09:52:11.825Z,855.82
2018-12-17T09:53:11.688Z,855.81
2018-12-17T09:54:11.557Z,855.86
2018-12-17T09:55:11.426Z,855.81
2018-12-17T09:56:11.289Z,855.85
2018-12-17T09:57:11.159Z,855.82
2018-12-17T09:58:11.029Z,855.81
2018-12-17T09:59:10.892Z,855.82
2018-12-17T10:00:10.761Z,855.81
2018-12-17T10:01:10.627Z,855.79
2018-12-17T10:02:10.494Z,855.77
2018-12-17T10:03:10.366Z,855.77
2018-12-17T10:04:10.231Z,855.79
2018-12-17T10:05:10.096Z,855.87
2018-12-17T10:06:09.964Z,855.86
2018-12-17T10:07:09.831Z,855.87
2018-12-17T10:08:09.701Z,855.88
2018-12-17T10:09:09.566Z,855.89
2018-12-17T10:10:09.434Z,855.94
2018-12-17T10:11:09.302Z,855.95
2018-12-17T10:12:09.171Z,855.92
2018-12-17T10:13:09.036Z,855.91
2018-12-17T10:14:08.908Z,855.90
2018-12-17T10:15:08.772Z,855.93
2018-12-17T10:16:08.638Z,855.94
2018-12-17T10:17:08.505Z,855.92
2018-12-17T10:18:08.374Z,855.94
2018-12-17T10:19:08.240Z,855.96
2018-12-17T10:20:08.111Z,855.96
2018-12-17T10:21:07.974Z,855.96
2018-12-17T10:22:08.214Z,855.95
2018-12-17T10:23:07.715Z,855.95
2018-12-17T10:24:07.576Z,855.97
2018-12-17T10:25:07.444Z,855.99
2018-12-17T10:26:07.312Z,856.02
2018-12-17T10:27:07.180Z,856.04
2018-12-17T10:28:07.043Z,856.02
2018-12-17T10:29:06.916Z,855.99
2018-12-17T10:30:06.786Z,855.97
2018-12-17T10:31:06.647Z,855.98
2018-12-17T10:32:06.513Z,855.96
2018-12-17T10:33:06.384Z,855.98
2018-12-17T10:34:06.271Z,855.98
2018-12-17T10:35:06.118Z,855.97
2018-12-17T10:36:05.984Z,855.96
2018-12-17T10:37:05.850Z,855.89
2018-12-17T10:38:05.719Z,855.93
2018-12-17T10:39:05.604Z,855.88
2018-12-17T10:40:05.453Z,855.89
2018-12-17T10:41:05.323Z,855.92
2018-12-17T10:42:05.189Z,855.90
2018-12-17T10:43:05.057Z,855.93
2018-12-17T10:44:04.926Z,855.92
2018-12-17T10:45:04.799Z,855.94
2018-12-17T10:46:04.661Z,855.97
2018-12-17T10:47:04.534Z,855.95
2018-12-17T10:48:04.395Z,855.98
2018-12-17T10:49:04.266Z,856.02
2018-12-17T10:50:04.132Z,855.99
2018-12-17T10:51:04.005Z,855.99
2018-12-17T10:52:03.871Z,856.03
2018-12-17T10:53:03.737Z,856.05
2018-12-17T10:54:03.604Z,856.02
2018-12-17T10:55:03.472Z,856.02
2018-12-17T10:56:03.341Z,856.05
2018-12-17T10:57:03.208Z,856.04
2018-12-17T10:58:03.080Z,856.06
2018-12-17T10:59:02.948Z,855.99
2018-12-17T11:00:02.814Z,856.06
2018-12-17T11:01:02.683Z,856.04
2018-12-17T11:02:02.555Z,856.05
2018-12-17T11:03:02.421Z,856.05
2018-12-17T11:04:02.288Z,856.09
2018-12-17T11:05:02.159Z,856.09
2018-12-17T11:06:02.028Z,856.07
2018-12-17T11:07:01.896Z,856.07
2018-12-17T11:08:01.767Z,856.05
2018-12-17T11:09:02.338Z,856.07
2018-12-17T11:10:01.505Z,856.09
2018-12-17T11:11:01.372Z,856.13
2018-12-17T11:12:01.243Z,856.16
2018-12-17T11:13:01.110Z,856.17
2018-12-17T11:14:00.982Z,856.14
2018-12-17T11:15:00.847Z,856.16
2018-12-17T11:16:00.716Z,856.12
2018-12-17T11:17:00.584Z,856.16
2018-12-17T11:18:00.452Z,856.14
2018-12-17T11:19:00.323Z,856.09
2018-12-17T11:20:00.188Z,856.11
2018-12-17T11:21:00.058Z,856.13
2018-12-17T11:21:59.926Z,856.16
2018-12-17T11:22:59.797Z,856.17
2018-12-17T11:23:59.664Z,856.13
2018-12-17T11:24:59.534Z,856.16
2018-12-17T11:25:59.401Z,856.14
2018-12-17T11:26:59.271Z,856.13
2018-12-17T11:27:59.178Z,856.13
2018-12-17T11:28:59.007Z,856.16
2018-12-17T11:29:58.873Z,856.19
2018-12-17T11:30:58.743Z,856.21
2018-12-17T11:31:58.610Z,856.18
2018-12-17T11:32:58.480Z,856.18
2018-12-17T11:33:58.347Z,856.25
2018-12-17T11:34:58.217Z,856.25
2018-12-17T11:35:58.085Z,856.22
2018-12-17T11:36:57.955Z,856.23
2018-12-17T11:37:57.822Z,856.22
2018-12-17T11:38:57.690Z,856.21
2018-12-17T11:39:57.559Z,856.19
2018-12-17T11:40:57.426Z,856.18
2018-12-17T11:41:57.294Z,856.18
2018-12-17T11:42:57.162Z,856.23
2018-12-17T11:43:57.031Z,856.24
2018-12-17T11:44:56.903Z,856.23
2018-12-17T11:45:56.768Z,856.23
2018-12-17T11:46:56.636Z,856.21
2018-12-17T11:47:56.503Z,856.19
2018-12-17T11:48:56.368Z,856.20
2018-12-17T11:49:56.242Z,856.21
2018-12-17T11:50:56.106Z,856.22
2018-12-17T11:51:55.975Z,856.19
2018-12-17T11:52:55.841Z,856.21
2018-12-17T11:53:55.715Z,856.22
2018-12-17T11:54:55.576Z,856.24
2018-12-17T11:55:55.444Z,856.28
2018-12-17T11:56:55.314Z,856.28
2018-12-17T11:57:55.179Z,856.37
2018-12-17T11:58:55.048Z,856.35
2018-12-17T11:59:54.919Z,856.32
2018-12-17T12:00:54.788Z,856.33
2018-12-17T12:01:54.655Z,856.34
2018-12-17T12:02:59.090Z,856.34
2018-12-17T12:03:54.387Z,856.35
2018-12-17T12:04:54.256Z,856.40
2018-12-17T12:05:54.121Z,856.38
2018-12-17T12:06:53.992Z,856.36
2018-12-17T12:07:53.858Z,856.40
2018-12-17T12:08:53.726Z,856.37
2018-12-17T12:09:53.601Z,856.36
2018-12-17T12:10:53.463Z,856.39
2018-12-17T12:11:53.328Z,856.41
2018-12-17T12:12:53.198Z,856.38
2018-12-17T12:13:53.066Z,856.39
2018-12-17T12:14:52.935Z,856.40
2018-12-17T12:15:52.804Z,856.43
2018-12-17T12:16:52.670Z,856.50
2018-12-17T12:17:52.538Z,856.49
2018-12-17T12:18:52.428Z,856.51
2018-12-17T12:19:52.274Z,856.50
2018-12-17T12:20:52.143Z,856.48
2018-12-17T12:21:52.016Z,856.51
2018-12-17T12:22:51.882Z,856.54
2018-12-17T12:23:51.746Z,856.54
2018-12-17T12:24:51.614Z,856.51
2018-12-17T12:25:51.481Z,856.50
2018-12-17T12:26:51.351Z,856.51